sensor_id;sensor_type;location;lat;lon;timestamp;temperature;humidity
61004;DHT22;46889;37.310;13.582;2023-05-08T00:01:00;18.20;99.90
61004;DHT22;46889;37.310;13.582;2023-05-08T00:03:26;18.30;99.90
61004;DHT22;46889;37.310;13.582;2023-05-08T00:05:52;18.20;99.90
61004;DHT22;46889;37.310;13.582;2023-05-08T00:08:20;18.20;99.90
61004;DHT22;46889;37.310;13.582;2023-05-08T00:10:46;18.20;99.90
61004;DHT22;46889;37.310;13.582;2023-05-08T00:13:12;18.20;99.90
61004;DHT22;46889;37.310;13.582;2023-05-08T00:15:40;18.20;99.90
61004;DHT22;46889;37.310;13.582;2023-05-08T00:18:06;18.20;99.90
61004;DHT22;46889;37.310;13.582;2023-05-08T00:20:32;18.20;99.90
61004;DHT22;46889;37.310;13.582;2023-05-08T00:22:59;18.20;99.90
61004;DHT22;46889;37.310;13.582;2023-05-08T00:25:26;18.20;99.90
61004;DHT22;46889;37.310;13.582;2023-05-08T00:27:52;18.10;99.90
61004;DHT22;46889;37.310;13.582;2023-05-08T00:30:18;18.20;99.90
61004;DHT22;46889;37.310;13.582;2023-05-08T00:32:44;18.20;99.90
61004;DHT22;46889;37.310;13.582;2023-05-08T00:35:15;18.20;99.90
61004;DHT22;46889;37.310;13.582;2023-05-08T00:37:41;18.30;99.90
61004;DHT22;46889;37.310;13.582;2023-05-08T00:40:09;18.40;99.90
61004;DHT22;46889;37.310;13.582;2023-05-08T00:42:35;18.40;99.90
61004;DHT22;46889;37.310;13.582;2023-05-08T00:45:02;18.40;99.90
61004;DHT22;46889;37.310;13.582;2023-05-08T00:47:29;18.40;99.90
61004;DHT22;46889;37.310;13.582;2023-05-08T00:50:00;18.40;99.90
61004;DHT22;46889;37.310;13.582;2023-05-08T00:52:31;18.40;99.90
61004;DHT22;46889;37.310;13.582;2023-05-08T00:54:59;18.30;99.90
61004;DHT22;46889;37.310;13.582;2023-05-08T00:57:25;18.20;99.90
61004;DHT22;46889;37.310;13.582;2023-05-08T00:59:51;18.20;99.90
61004;DHT22;46889;37.310;13.582;2023-05-08T01:02:18;18.20;99.90
61004;DHT22;46889;37.310;13.582;2023-05-08T01:04:47;18.30;99.90
61004;DHT22;46889;37.310;13.582;2023-05-08T01:07:13;18.30;99.90
61004;DHT22;46889;37.310;13.582;2023-05-08T01:09:39;18.40;99.90
61004;DHT22;46889;37.310;13.582;2023-05-08T01:12:37;18.40;99.90
61004;DHT22;46889;37.310;13.582;2023-05-08T01:15:25;18.50;99.90
61004;DHT22;46889;37.310;13.582;2023-05-08T01:26:14;18.60;99.90
61004;DHT22;46889;37.310;13.582;2023-05-08T01:32:04;18.60;99.90
61004;DHT22;46889;37.310;13.582;2023-05-08T01:34:32;18.60;99.90
61004;DHT22;46889;37.310;13.582;2023-05-08T01:37:04;18.50;99.90
61004;DHT22;46889;37.310;13.582;2023-05-08T01:39:40;18.50;99.90
61004;DHT22;46889;37.310;13.582;2023-05-08T01:42:10;18.40;99.90
61004;DHT22;46889;37.310;13.582;2023-05-08T01:44:44;18.40;99.90
61004;DHT22;46889;37.310;13.582;2023-05-08T01:47:13;18.40;99.90
61004;DHT22;46889;37.310;13.582;2023-05-08T01:49:49;18.40;99.90
61004;DHT22;46889;37.310;13.582;2023-05-08T01:52:28;18.40;99.90
61004;DHT22;46889;37.310;13.582;2023-05-08T01:55:03;18.40;99.90
61004;DHT22;46889;37.310;13.582;2023-05-08T01:57:33;18.30;99.90
61004;DHT22;46889;37.310;13.582;2023-05-08T02:00:00;18.20;99.90
61004;DHT22;46889;37.310;13.582;2023-05-08T02:02:31;18.20;99.90
61004;DHT22;46889;37.310;13.582;2023-05-08T02:04:58;18.20;99.90
61004;DHT22;46889;37.310;13.582;2023-05-08T02:07:27;18.20;99.90
61004;DHT22;46889;37.310;13.582;2023-05-08T02:09:54;18.10;99.90
61004;DHT22;46889;37.310;13.582;2023-05-08T02:12:21;18.20;99.90
61004;DHT22;46889;37.310;13.582;2023-05-08T02:14:48;18.30;99.90
61004;DHT22;46889;37.310;13.582;2023-05-08T02:17:17;18.30;99.90
61004;DHT22;46889;37.310;13.582;2023-05-08T02:19:48;18.40;99.90
61004;DHT22;46889;37.310;13.582;2023-05-08T02:22:16;18.30;99.90
61004;DHT22;46889;37.310;13.582;2023-05-08T02:24:44;18.20;99.90
61004;DHT22;46889;37.310;13.582;2023-05-08T02:27:11;18.10;99.90
61004;DHT22;46889;37.310;13.582;2023-05-08T02:29:37;18.10;99.90
61004;DHT22;46889;37.310;13.582;2023-05-08T02:32:05;18.10;99.90
61004;DHT22;46889;37.310;13.582;2023-05-08T02:34:34;17.90;99.90
61004;DHT22;46889;37.310;13.582;2023-05-08T02:37:02;17.80;99.90
61004;DHT22;46889;37.310;13.582;2023-05-08T02:39:30;17.80;99.90
61004;DHT22;46889;37.310;13.582;2023-05-08T02:41:59;17.90;99.90
61004;DHT22;46889;37.310;13.582;2023-05-08T02:44:26;17.80;99.90
61004;DHT22;46889;37.310;13.582;2023-05-08T02:46:59;17.70;99.90
61004;DHT22;46889;37.310;13.582;2023-05-08T02:49:42;17.80;99.90
61004;DHT22;46889;37.310;13.582;2023-05-08T02:52:28;17.80;99.90
61004;DHT22;46889;37.310;13.582;2023-05-08T03:00:14;18.00;99.90
61004;DHT22;46889;37.310;13.582;2023-05-08T03:02:52;17.80;99.90
61004;DHT22;46889;37.310;13.582;2023-05-08T03:05:27;17.70;99.90
61004;DHT22;46889;37.310;13.582;2023-05-08T03:07:58;17.50;99.90
61004;DHT22;46889;37.310;13.582;2023-05-08T03:10:30;17.40;99.90
61004;DHT22;46889;37.310;13.582;2023-05-08T03:13:01;17.40;99.90
61004;DHT22;46889;37.310;13.582;2023-05-08T03:15:41;17.40;99.90
61004;DHT22;46889;37.310;13.582;2023-05-08T03:18:16;17.50;99.90
61004;DHT22;46889;37.310;13.582;2023-05-08T03:20:46;17.60;99.90
61004;DHT22;46889;37.310;13.582;2023-05-08T03:23:14;17.60;99.90
61004;DHT22;46889;37.310;13.582;2023-05-08T03:25:42;17.70;99.90
61004;DHT22;46889;37.310;13.582;2023-05-08T03:28:09;17.80;99.90
61004;DHT22;46889;37.310;13.582;2023-05-08T03:30:37;17.90;99.90
61004;DHT22;46889;37.310;13.582;2023-05-08T03:33:04;17.90;99.90
61004;DHT22;46889;37.310;13.582;2023-05-08T03:35:34;17.80;99.90
61004;DHT22;46889;37.310;13.582;2023-05-08T03:38:01;17.80;99.90
61004;DHT22;46889;37.310;13.582;2023-05-08T03:40:27;17.80;99.90
61004;DHT22;46889;37.310;13.582;2023-05-08T03:42:54;17.80;99.90
61004;DHT22;46889;37.310;13.582;2023-05-08T03:45:21;17.90;99.90
61004;DHT22;46889;37.310;13.582;2023-05-08T03:47:48;17.90;99.90
61004;DHT22;46889;37.310;13.582;2023-05-08T03:50:15;17.90;99.90
61004;DHT22;46889;37.310;13.582;2023-05-08T03:52:42;18.00;99.90
61004;DHT22;46889;37.310;13.582;2023-05-08T03:55:08;18.00;99.90
61004;DHT22;46889;37.310;13.582;2023-05-08T03:57:43;18.00;99.90
61004;DHT22;46889;37.310;13.582;2023-05-08T04:00:21;18.10;99.90
61004;DHT22;46889;37.310;13.582;2023-05-08T04:02:56;18.10;99.90
61004;DHT22;46889;37.310;13.582;2023-05-08T04:05:35;18.10;99.90
61004;DHT22;46889;37.310;13.582;2023-05-08T04:08:05;18.30;99.90
61004;DHT22;46889;37.310;13.582;2023-05-08T04:10:41;18.30;99.90
61004;DHT22;46889;37.310;13.582;2023-05-08T04:13:12;18.20;99.90
61004;DHT22;46889;37.310;13.582;2023-05-08T04:18:17;18.10;99.90
61004;DHT22;46889;37.310;13.582;2023-05-08T04:20:47;18.10;99.90
61004;DHT22;46889;37.310;13.582;2023-05-08T04:23:17;18.10;99.90
61004;DHT22;46889;37.310;13.582;2023-05-08T04:25:46;18.00;99.90
61004;DHT22;46889;37.310;13.582;2023-05-08T04:28:13;18.10;99.90
61004;DHT22;46889;37.310;13.582;2023-05-08T04:30:40;18.10;99.90
61004;DHT22;46889;37.310;13.582;2023-05-08T04:33:07;18.10;99.90
61004;DHT22;46889;37.310;13.582;2023-05-08T04:35:34;18.00;99.90
61004;DHT22;46889;37.310;13.582;2023-05-08T04:38:00;18.00;99.90
61004;DHT22;46889;37.310;13.582;2023-05-08T04:40:27;18.00;99.90
61004;DHT22;46889;37.310;13.582;2023-05-08T04:42:53;18.10;99.90
61004;DHT22;46889;37.310;13.582;2023-05-08T04:45:20;18.10;99.90
61004;DHT22;46889;37.310;13.582;2023-05-08T04:47:46;18.10;99.90
61004;DHT22;46889;37.310;13.582;2023-05-08T04:50:12;18.20;99.90
61004;DHT22;46889;37.310;13.582;2023-05-08T04:52:38;18.30;99.90
61004;DHT22;46889;37.310;13.582;2023-05-08T04:55:04;18.20;99.90
61004;DHT22;46889;37.310;13.582;2023-05-08T04:57:30;18.30;99.90
61004;DHT22;46889;37.310;13.582;2023-05-08T04:59:56;18.30;99.90
61004;DHT22;46889;37.310;13.582;2023-05-08T05:02:24;18.30;99.90
61004;DHT22;46889;37.310;13.582;2023-05-08T05:04:51;18.20;99.90
61004;DHT22;46889;37.310;13.582;2023-05-08T05:07:17;18.10;99.90
61004;DHT22;46889;37.310;13.582;2023-05-08T05:09:43;17.90;99.90
61004;DHT22;46889;37.310;13.582;2023-05-08T05:12:09;17.90;99.90
61004;DHT22;46889;37.310;13.582;2023-05-08T05:14:35;17.90;99.90
61004;DHT22;46889;37.310;13.582;2023-05-08T05:17:01;17.70;99.90
61004;DHT22;46889;37.310;13.582;2023-05-08T05:19:27;17.70;99.90
61004;DHT22;46889;37.310;13.582;2023-05-08T05:21:54;17.80;99.90
61004;DHT22;46889;37.310;13.582;2023-05-08T05:24:20;17.70;99.90
61004;DHT22;46889;37.310;13.582;2023-05-08T05:26:46;17.70;99.90
61004;DHT22;46889;37.310;13.582;2023-05-08T05:29:12;17.70;99.90
61004;DHT22;46889;37.310;13.582;2023-05-08T05:31:38;17.70;99.90
61004;DHT22;46889;37.310;13.582;2023-05-08T05:34:04;17.70;99.90
61004;DHT22;46889;37.310;13.582;2023-05-08T05:36:30;17.70;99.90
61004;DHT22;46889;37.310;13.582;2023-05-08T05:38:56;17.70;99.90
61004;DHT22;46889;37.310;13.582;2023-05-08T05:41:22;17.70;99.90
61004;DHT22;46889;37.310;13.582;2023-05-08T05:43:48;17.80;99.90
61004;DHT22;46889;37.310;13.582;2023-05-08T05:46:15;17.90;99.90
61004;DHT22;46889;37.310;13.582;2023-05-08T05:48:41;18.10;99.90
61004;DHT22;46889;37.310;13.582;2023-05-08T05:51:07;18.20;99.90
61004;DHT22;46889;37.310;13.582;2023-05-08T05:53:33;18.20;99.90
61004;DHT22;46889;37.310;13.582;2023-05-08T05:56:00;18.30;99.90
61004;DHT22;46889;37.310;13.582;2023-05-08T05:58:26;18.30;99.90
61004;DHT22;46889;37.310;13.582;2023-05-08T06:00:53;18.30;99.90
61004;DHT22;46889;37.310;13.582;2023-05-08T06:03:19;18.40;99.90
61004;DHT22;46889;37.310;13.582;2023-05-08T06:05:46;18.50;99.90
61004;DHT22;46889;37.310;13.582;2023-05-08T06:08:12;18.60;99.90
61004;DHT22;46889;37.310;13.582;2023-05-08T06:10:38;18.70;99.90
61004;DHT22;46889;37.310;13.582;2023-05-08T06:13:04;18.70;99.90
61004;DHT22;46889;37.310;13.582;2023-05-08T06:15:31;18.70;99.90
61004;DHT22;46889;37.310;13.582;2023-05-08T06:17:57;18.80;99.90
61004;DHT22;46889;37.310;13.582;2023-05-08T06:20:23;18.80;99.90
61004;DHT22;46889;37.310;13.582;2023-05-08T06:22:49;18.80;99.90
61004;DHT22;46889;37.310;13.582;2023-05-08T06:25:15;18.80;99.90
61004;DHT22;46889;37.310;13.582;2023-05-08T06:27:42;18.90;99.90
61004;DHT22;46889;37.310;13.582;2023-05-08T06:30:08;18.70;99.90
61004;DHT22;46889;37.310;13.582;2023-05-08T06:32:35;18.50;99.90
61004;DHT22;46889;37.310;13.582;2023-05-08T06:35:01;18.40;99.90
61004;DHT22;46889;37.310;13.582;2023-05-08T06:37:28;18.40;99.90
61004;DHT22;46889;37.310;13.582;2023-05-08T06:39:54;18.40;99.90
61004;DHT22;46889;37.310;13.582;2023-05-08T06:42:20;18.40;99.90
61004;DHT22;46889;37.310;13.582;2023-05-08T06:44:46;18.50;99.90
61004;DHT22;46889;37.310;13.582;2023-05-08T06:47:12;18.50;99.90
61004;DHT22;46889;37.310;13.582;2023-05-08T06:49:38;18.50;99.90
61004;DHT22;46889;37.310;13.582;2023-05-08T06:52:04;18.50;99.90
61004;DHT22;46889;37.310;13.582;2023-05-08T06:54:30;18.40;99.90
61004;DHT22;46889;37.310;13.582;2023-05-08T06:56:56;18.50;99.90
61004;DHT22;46889;37.310;13.582;2023-05-08T06:59:22;18.60;99.90
61004;DHT22;46889;37.310;13.582;2023-05-08T07:01:55;18.70;99.90
61004;DHT22;46889;37.310;13.582;2023-05-08T07:04:21;18.90;99.90
61004;DHT22;46889;37.310;13.582;2023-05-08T07:06:47;19.00;99.90
61004;DHT22;46889;37.310;13.582;2023-05-08T07:09:13;19.10;99.90
61004;DHT22;46889;37.310;13.582;2023-05-08T07:11:39;19.10;99.90
61004;DHT22;46889;37.310;13.582;2023-05-08T07:14:05;19.10;99.90
61004;DHT22;46889;37.310;13.582;2023-05-08T07:16:31;19.20;99.90
61004;DHT22;46889;37.310;13.582;2023-05-08T07:18:58;19.20;99.90
61004;DHT22;46889;37.310;13.582;2023-05-08T07:21:24;19.20;99.90
61004;DHT22;46889;37.310;13.582;2023-05-08T07:23:50;19.20;99.90
61004;DHT22;46889;37.310;13.582;2023-05-08T07:26:18;19.20;99.90
61004;DHT22;46889;37.310;13.582;2023-05-08T07:28:44;19.20;99.90
61004;DHT22;46889;37.310;13.582;2023-05-08T07:31:13;19.20;99.90
61004;DHT22;46889;37.310;13.582;2023-05-08T07:33:39;19.20;99.90
61004;DHT22;46889;37.310;13.582;2023-05-08T07:36:06;19.10;99.90
61004;DHT22;46889;37.310;13.582;2023-05-08T07:38:32;19.10;99.90
61004;DHT22;46889;37.310;13.582;2023-05-08T07:40:58;18.70;99.90
61004;DHT22;46889;37.310;13.582;2023-05-08T07:43:28;18.40;99.90
61004;DHT22;46889;37.310;13.582;2023-05-08T07:45:54;18.10;99.90
61004;DHT22;46889;37.310;13.582;2023-05-08T07:48:20;17.80;99.90
61004;DHT22;46889;37.310;13.582;2023-05-08T07:50:48;17.50;99.90
61004;DHT22;46889;37.310;13.582;2023-05-08T07:53:15;17.10;99.90
61004;DHT22;46889;37.310;13.582;2023-05-08T07:55:42;17.00;99.90
61004;DHT22;46889;37.310;13.582;2023-05-08T07:58:09;17.00;99.90
61004;DHT22;46889;37.310;13.582;2023-05-08T08:00:35;17.00;99.90
61004;DHT22;46889;37.310;13.582;2023-05-08T08:03:01;16.90;99.90
61004;DHT22;46889;37.310;13.582;2023-05-08T08:05:28;16.90;99.90
61004;DHT22;46889;37.310;13.582;2023-05-08T08:07:54;16.90;99.90
61004;DHT22;46889;37.310;13.582;2023-05-08T08:10:20;16.90;99.90
61004;DHT22;46889;37.310;13.582;2023-05-08T08:12:46;17.00;99.90
61004;DHT22;46889;37.310;13.582;2023-05-08T08:15:12;17.10;99.90
61004;DHT22;46889;37.310;13.582;2023-05-08T08:17:38;17.10;99.90
61004;DHT22;46889;37.310;13.582;2023-05-08T08:20:05;17.30;99.90
61004;DHT22;46889;37.310;13.582;2023-05-08T08:22:31;17.40;99.90
61004;DHT22;46889;37.310;13.582;2023-05-08T08:24:57;17.50;99.90
61004;DHT22;46889;37.310;13.582;2023-05-08T08:27:23;17.50;99.90
61004;DHT22;46889;37.310;13.582;2023-05-08T08:29:49;17.40;99.90
61004;DHT22;46889;37.310;13.582;2023-05-08T08:32:15;17.40;99.90
61004;DHT22;46889;37.310;13.582;2023-05-08T08:34:41;17.30;99.90
61004;DHT22;46889;37.310;13.582;2023-05-08T08:37:08;17.40;99.90
61004;DHT22;46889;37.310;13.582;2023-05-08T08:39:34;17.30;99.90
61004;DHT22;46889;37.310;13.582;2023-05-08T08:42:00;17.30;99.90
61004;DHT22;46889;37.310;13.582;2023-05-08T08:44:27;17.50;99.90
61004;DHT22;46889;37.310;13.582;2023-05-08T08:46:53;17.50;99.90
61004;DHT22;46889;37.310;13.582;2023-05-08T08:49:27;17.50;99.90
61004;DHT22;46889;37.310;13.582;2023-05-08T08:51:58;17.50;99.90
61004;DHT22;46889;37.310;13.582;2023-05-08T08:54:29;17.40;99.90
61004;DHT22;46889;37.310;13.582;2023-05-08T08:56:56;17.60;99.90
61004;DHT22;46889;37.310;13.582;2023-05-08T08:59:25;17.50;99.90
61004;DHT22;46889;37.310;13.582;2023-05-08T09:02:04;17.50;99.90
61004;DHT22;46889;37.310;13.582;2023-05-08T09:04:31;17.50;99.90
61004;DHT22;46889;37.310;13.582;2023-05-08T09:06:57;17.70;99.90
61004;DHT22;46889;37.310;13.582;2023-05-08T09:09:24;17.70;99.90
61004;DHT22;46889;37.310;13.582;2023-05-08T09:11:51;17.80;99.90
61004;DHT22;46889;37.310;13.582;2023-05-08T09:14:18;17.90;99.90
61004;DHT22;46889;37.310;13.582;2023-05-08T09:16:44;18.00;99.90
61004;DHT22;46889;37.310;13.582;2023-05-08T09:19:13;18.00;99.90
61004;DHT22;46889;37.310;13.582;2023-05-08T09:21:40;18.00;99.90
61004;DHT22;46889;37.310;13.582;2023-05-08T09:24:07;18.00;99.90
61004;DHT22;46889;37.310;13.582;2023-05-08T09:26:37;17.90;99.90
61004;DHT22;46889;37.310;13.582;2023-05-08T09:29:17;17.90;99.90
61004;DHT22;46889;37.310;13.582;2023-05-08T09:31:49;17.80;99.90
61004;DHT22;46889;37.310;13.582;2023-05-08T09:34:30;17.80;99.90
61004;DHT22;46889;37.310;13.582;2023-05-08T09:39:29;17.90;99.90
61004;DHT22;46889;37.310;13.582;2023-05-08T09:41:57;17.90;99.90
61004;DHT22;46889;37.310;13.582;2023-05-08T09:44:23;17.90;99.90
61004;DHT22;46889;37.310;13.582;2023-05-08T09:46:49;17.90;99.90
61004;DHT22;46889;37.310;13.582;2023-05-08T09:49:17;17.90;99.90
61004;DHT22;46889;37.310;13.582;2023-05-08T09:51:52;17.90;99.90
61004;DHT22;46889;37.310;13.582;2023-05-08T09:54:19;17.90;99.90
61004;DHT22;46889;37.310;13.582;2023-05-08T09:56:45;18.00;99.90
61004;DHT22;46889;37.310;13.582;2023-05-08T09:59:27;18.10;99.90
61004;DHT22;46889;37.310;13.582;2023-05-08T10:01:56;18.10;99.90
61004;DHT22;46889;37.310;13.582;2023-05-08T10:04:36;18.00;99.90
61004;DHT22;46889;37.310;13.582;2023-05-08T10:07:03;18.00;99.90
61004;DHT22;46889;37.310;13.582;2023-05-08T10:09:29;18.10;99.90
61004;DHT22;46889;37.310;13.582;2023-05-08T10:11:55;18.10;99.90
61004;DHT22;46889;37.310;13.582;2023-05-08T10:14:22;18.20;99.90
61004;DHT22;46889;37.310;13.582;2023-05-08T10:16:49;18.30;99.90
61004;DHT22;46889;37.310;13.582;2023-05-08T10:19:20;18.40;99.90
61004;DHT22;46889;37.310;13.582;2023-05-08T10:21:51;18.50;99.90
61004;DHT22;46889;37.310;13.582;2023-05-08T10:24:19;18.50;99.90
61004;DHT22;46889;37.310;13.582;2023-05-08T10:27:10;18.50;99.90
61004;DHT22;46889;37.310;13.582;2023-05-08T10:30:00;18.50;99.90
61004;DHT22;46889;37.310;13.582;2023-05-08T10:32:36;18.40;99.90
61004;DHT22;46889;37.310;13.582;2023-05-08T10:35:03;18.40;99.90
61004;DHT22;46889;37.310;13.582;2023-05-08T10:37:35;18.60;99.90
61004;DHT22;46889;37.310;13.582;2023-05-08T10:40:03;18.60;99.90
61004;DHT22;46889;37.310;13.582;2023-05-08T10:42:32;18.50;99.90
61004;DHT22;46889;37.310;13.582;2023-05-08T10:45:00;18.60;99.90
61004;DHT22;46889;37.310;13.582;2023-05-08T10:50:27;18.70;99.90
61004;DHT22;46889;37.310;13.582;2023-05-08T10:55:40;18.70;99.90
61004;DHT22;46889;37.310;13.582;2023-05-08T10:58:12;18.70;99.90
61004;DHT22;46889;37.310;13.582;2023-05-08T11:03:18;18.80;99.90
61004;DHT22;46889;37.310;13.582;2023-05-08T11:05:46;18.70;99.90
61004;DHT22;46889;37.310;13.582;2023-05-08T11:08:19;18.80;99.90
61004;DHT22;46889;37.310;13.582;2023-05-08T11:13:51;18.80;99.90
61004;DHT22;46889;37.310;13.582;2023-05-08T11:19:25;18.60;99.90
61004;DHT22;46889;37.310;13.582;2023-05-08T11:22:20;18.50;99.90
61004;DHT22;46889;37.310;13.582;2023-05-08T11:24:52;18.50;99.90
61004;DHT22;46889;37.310;13.582;2023-05-08T11:27:32;18.60;99.90
61004;DHT22;46889;37.310;13.582;2023-05-08T11:35:51;18.40;99.90
61004;DHT22;46889;37.310;13.582;2023-05-08T11:41:20;18.50;99.90
61004;DHT22;46889;37.310;13.582;2023-05-08T11:46:20;18.60;99.90
61004;DHT22;46889;37.310;13.582;2023-05-08T11:48:46;18.60;99.90
61004;DHT22;46889;37.310;13.582;2023-05-08T11:51:16;18.60;99.90
61004;DHT22;46889;37.310;13.582;2023-05-08T11:53:44;18.70;99.90
61004;DHT22;46889;37.310;13.582;2023-05-08T11:56:10;18.80;99.90
61004;DHT22;46889;37.310;13.582;2023-05-08T11:58:36;18.60;99.90
61004;DHT22;46889;37.310;13.582;2023-05-08T12:01:02;18.30;99.90
61004;DHT22;46889;37.310;13.582;2023-05-08T12:03:28;18.20;99.90
61004;DHT22;46889;37.310;13.582;2023-05-08T12:05:56;18.10;99.90
61004;DHT22;46889;37.310;13.582;2023-05-08T12:08:23;18.20;99.90
61004;DHT22;46889;37.310;13.582;2023-05-08T12:10:54;18.30;99.90
61004;DHT22;46889;37.310;13.582;2023-05-08T12:13:23;18.40;99.90
61004;DHT22;46889;37.310;13.582;2023-05-08T12:15:54;18.20;99.90
61004;DHT22;46889;37.310;13.582;2023-05-08T12:18:23;18.20;99.90
61004;DHT22;46889;37.310;13.582;2023-05-08T12:20:55;18.10;99.90
61004;DHT22;46889;37.310;13.582;2023-05-08T12:23:27;18.10;99.90
61004;DHT22;46889;37.310;13.582;2023-05-08T12:25:58;18.10;99.90
61004;DHT22;46889;37.310;13.582;2023-05-08T12:28:25;18.10;99.90
61004;DHT22;46889;37.310;13.582;2023-05-08T12:30:52;18.20;99.90
61004;DHT22;46889;37.310;13.582;2023-05-08T12:33:19;18.50;99.90
61004;DHT22;46889;37.310;13.582;2023-05-08T12:35:45;18.70;99.90
61004;DHT22;46889;37.310;13.582;2023-05-08T12:38:11;19.10;99.90
61004;DHT22;46889;37.310;13.582;2023-05-08T12:40:43;19.20;99.90
61004;DHT22;46889;37.310;13.582;2023-05-08T12:43:09;19.30;99.90
61004;DHT22;46889;37.310;13.582;2023-05-08T12:45:37;19.40;99.90
61004;DHT22;46889;37.310;13.582;2023-05-08T12:48:06;19.30;99.90
61004;DHT22;46889;37.310;13.582;2023-05-08T12:50:34;19.40;99.90
61004;DHT22;46889;37.310;13.582;2023-05-08T12:53:11;19.40;99.90
61004;DHT22;46889;37.310;13.582;2023-05-08T12:55:39;19.60;99.90
61004;DHT22;46889;37.310;13.582;2023-05-08T12:58:12;19.50;99.90
61004;DHT22;46889;37.310;13.582;2023-05-08T13:00:45;19.40;99.90
61004;DHT22;46889;37.310;13.582;2023-05-08T13:03:21;19.40;99.90
61004;DHT22;46889;37.310;13.582;2023-05-08T13:05:49;19.50;99.90
61004;DHT22;46889;37.310;13.582;2023-05-08T13:08:16;19.20;99.90
61004;DHT22;46889;37.310;13.582;2023-05-08T13:10:50;19.40;99.90
61004;DHT22;46889;37.310;13.582;2023-05-08T13:13:18;19.70;99.90
61004;DHT22;46889;37.310;13.582;2023-05-08T13:15:45;19.70;99.90
61004;DHT22;46889;37.310;13.582;2023-05-08T13:18:12;19.70;99.90
61004;DHT22;46889;37.310;13.582;2023-05-08T13:20:38;19.50;99.90
61004;DHT22;46889;37.310;13.582;2023-05-08T13:23:05;19.50;99.90
61004;DHT22;46889;37.310;13.582;2023-05-08T13:25:31;19.50;99.90
61004;DHT22;46889;37.310;13.582;2023-05-08T13:27:58;19.40;99.90
61004;DHT22;46889;37.310;13.582;2023-05-08T13:30:31;19.50;99.90
61004;DHT22;46889;37.310;13.582;2023-05-08T13:32:57;19.40;99.90
61004;DHT22;46889;37.310;13.582;2023-05-08T13:35:23;19.50;99.90
61004;DHT22;46889;37.310;13.582;2023-05-08T13:37:49;19.70;99.90
61004;DHT22;46889;37.310;13.582;2023-05-08T13:40:16;19.60;99.90
61004;DHT22;46889;37.310;13.582;2023-05-08T13:42:42;19.90;99.90
61004;DHT22;46889;37.310;13.582;2023-05-08T13:45:09;20.00;99.90
61004;DHT22;46889;37.310;13.582;2023-05-08T13:47:35;20.00;99.90
61004;DHT22;46889;37.310;13.582;2023-05-08T13:50:02;19.90;99.90
61004;DHT22;46889;37.310;13.582;2023-05-08T13:52:28;19.90;99.90
61004;DHT22;46889;37.310;13.582;2023-05-08T13:54:55;19.70;99.90
61004;DHT22;46889;37.310;13.582;2023-05-08T13:57:22;19.70;99.90
61004;DHT22;46889;37.310;13.582;2023-05-08T13:59:49;19.50;99.90
61004;DHT22;46889;37.310;13.582;2023-05-08T14:02:15;19.40;99.90
61004;DHT22;46889;37.310;13.582;2023-05-08T14:04:41;19.40;99.90
61004;DHT22;46889;37.310;13.582;2023-05-08T14:07:07;19.10;99.90
61004;DHT22;46889;37.310;13.582;2023-05-08T14:09:33;18.90;99.90
61004;DHT22;46889;37.310;13.582;2023-05-08T14:11:59;18.60;99.90
61004;DHT22;46889;37.310;13.582;2023-05-08T14:14:25;18.60;99.90
61004;DHT22;46889;37.310;13.582;2023-05-08T14:16:51;18.20;99.90
61004;DHT22;46889;37.310;13.582;2023-05-08T14:19:17;18.00;99.90
61004;DHT22;46889;37.310;13.582;2023-05-08T14:21:44;18.00;99.90
61004;DHT22;46889;37.310;13.582;2023-05-08T14:24:10;18.00;99.90
61004;DHT22;46889;37.310;13.582;2023-05-08T14:26:36;17.70;99.90
61004;DHT22;46889;37.310;13.582;2023-05-08T14:29:03;17.40;99.90
61004;DHT22;46889;37.310;13.582;2023-05-08T14:31:29;17.20;99.90
61004;DHT22;46889;37.310;13.582;2023-05-08T14:33:55;17.10;99.90
61004;DHT22;46889;37.310;13.582;2023-05-08T14:36:21;17.00;99.90
61004;DHT22;46889;37.310;13.582;2023-05-08T14:38:47;17.10;99.90
61004;DHT22;46889;37.310;13.582;2023-05-08T14:41:13;17.10;99.90
61004;DHT22;46889;37.310;13.582;2023-05-08T14:43:39;17.00;99.90
61004;DHT22;46889;37.310;13.582;2023-05-08T14:46:07;17.00;99.90
61004;DHT22;46889;37.310;13.582;2023-05-08T14:48:33;16.90;99.90
61004;DHT22;46889;37.310;13.582;2023-05-08T14:51:00;17.10;99.90
61004;DHT22;46889;37.310;13.582;2023-05-08T14:53:27;17.20;99.90
61004;DHT22;46889;37.310;13.582;2023-05-08T14:55:53;17.40;99.90
61004;DHT22;46889;37.310;13.582;2023-05-08T14:58:19;17.60;99.90
61004;DHT22;46889;37.310;13.582;2023-05-08T15:00:46;17.70;99.90
61004;DHT22;46889;37.310;13.582;2023-05-08T15:03:12;17.40;99.90
61004;DHT22;46889;37.310;13.582;2023-05-08T15:05:38;17.00;99.90
61004;DHT22;46889;37.310;13.582;2023-05-08T15:08:04;16.90;99.90
61004;DHT22;46889;37.310;13.582;2023-05-08T15:10:30;17.00;99.90
61004;DHT22;46889;37.310;13.582;2023-05-08T15:12:56;17.10;99.90
61004;DHT22;46889;37.310;13.582;2023-05-08T15:15:22;17.10;99.90
61004;DHT22;46889;37.310;13.582;2023-05-08T15:17:48;17.20;99.90
61004;DHT22;46889;37.310;13.582;2023-05-08T15:20:14;17.30;99.90
61004;DHT22;46889;37.310;13.582;2023-05-08T15:22:40;17.40;99.90
61004;DHT22;46889;37.310;13.582;2023-05-08T15:25:07;17.60;99.90
61004;DHT22;46889;37.310;13.582;2023-05-08T15:27:33;17.60;99.90
61004;DHT22;46889;37.310;13.582;2023-05-08T15:29:59;17.60;99.90
61004;DHT22;46889;37.310;13.582;2023-05-08T15:32:25;17.50;99.90
61004;DHT22;46889;37.310;13.582;2023-05-08T15:34:51;17.50;99.90
61004;DHT22;46889;37.310;13.582;2023-05-08T15:37:18;17.40;99.90
61004;DHT22;46889;37.310;13.582;2023-05-08T15:39:44;17.40;99.90
61004;DHT22;46889;37.310;13.582;2023-05-08T15:42:10;17.20;99.90
61004;DHT22;46889;37.310;13.582;2023-05-08T15:44:36;17.00;99.90
61004;DHT22;46889;37.310;13.582;2023-05-08T15:47:02;17.00;99.90
61004;DHT22;46889;37.310;13.582;2023-05-08T15:49:28;17.10;99.90
61004;DHT22;46889;37.310;13.582;2023-05-08T15:51:54;17.30;99.90
61004;DHT22;46889;37.310;13.582;2023-05-08T15:54:21;17.30;99.90
61004;DHT22;46889;37.310;13.582;2023-05-08T15:56:47;17.20;99.90
61004;DHT22;46889;37.310;13.582;2023-05-08T15:59:13;17.20;99.90
61004;DHT22;46889;37.310;13.582;2023-05-08T16:01:39;17.20;99.90
61004;DHT22;46889;37.310;13.582;2023-05-08T16:04:07;17.00;99.90
61004;DHT22;46889;37.310;13.582;2023-05-08T16:06:33;16.90;99.90
61004;DHT22;46889;37.310;13.582;2023-05-08T16:08:59;16.80;99.90